Time;durP1;ratioP1;P1;durP2;ratioP2;P2;SDS_P1;SDS_P2;PMS_P1;PMS_P2;Temp;Humidity;BMP_temperature;BMP_pressure;BME280_temperature;BME280_humidity;BME280_pressure;Samples;Min_cycle;Max_cycle;Signal;HPM_P1;HPM_P2
2022/11/21 00:00:21;;;;;;;43.03;18.58;;;-0.40;99.90;;;;;;5083107;28;20037;-76
2022/11/21 00:02:46;;;;;;;38.33;18.10;;;-0.40;99.90;;;;;;5085881;28;20024;-76
2022/11/21 00:05:12;;;;;;;41.17;18.80;;;-0.50;99.90;;;;;;5093774;28;20047;-76
2022/11/21 00:07:38;;;;;;;47.97;20.55;;;-0.40;99.90;;;;;;5101895;28;20052;-75
2022/11/21 00:10:04;;;;;;;41.28;18.67;;;-0.40;99.90;;;;;;5107391;28;20045;-77
2022/11/21 00:12:30;;;;;;;42.55;19.60;;;-0.40;99.90;;;;;;5106806;28;20030;-75
2022/11/21 00:14:55;;;;;;;42.00;19.55;;;-0.40;99.90;;;;;;5107145;28;20064;-75
2022/11/21 00:17:21;;;;;;;46.75;20.25;;;-0.40;99.90;;;;;;5108153;28;20024;-75
2022/11/21 00:19:46;;;;;;;46.13;21.15;;;-0.40;99.90;;;;;;5106198;28;20024;-76
2022/11/21 00:22:12;;;;;;;46.38;20.55;;;-0.30;99.90;;;;;;5107277;28;20060;-77
2022/11/21 00:24:38;;;;;;;50.25;20.90;;;-0.30;99.90;;;;;;5107054;28;20020;-76
2022/11/21 00:27:04;;;;;;;43.00;19.83;;;-0.30;99.90;;;;;;5106469;28;20050;-76
2022/11/21 00:29:29;;;;;;;36.30;18.13;;;-0.30;99.90;;;;;;5106618;28;20016;-75
2022/11/21 00:31:55;;;;;;;39.92;19.27;;;-0.30;99.90;;;;;;5107055;28;20074;-76
2022/11/21 00:34:20;;;;;;;41.97;19.65;;;-0.20;99.90;;;;;;5106221;28;20020;-76
2022/11/21 00:36:46;;;;;;;40.03;17.40;;;-0.30;99.90;;;;;;5107112;28;20028;-75
2022/11/21 00:39:11;;;;;;;39.47;18.38;;;-0.20;99.90;;;;;;5106502;28;20047;-75
2022/11/21 00:41:37;;;;;;;39.47;18.13;;;-0.10;99.90;;;;;;5097193;28;20025;-75
2022/11/21 00:44:03;;;;;;;40.08;18.13;;;-0.20;99.90;;;;;;5105545;28;20050;-75
2022/11/21 00:46:28;;;;;;;41.85;17.48;;;-0.20;99.90;;;;;;5093962;28;20028;-75
2022/11/21 00:48:54;;;;;;;37.10;18.40;;;-0.20;99.90;;;;;;5086013;28;20153;-74
2022/11/21 00:51:19;;;;;;;35.90;17.25;;;-0.20;99.90;;;;;;5096923;28;20387;-76
2022/11/21 00:53:46;;;;;;;41.00;18.60;;;-0.20;99.90;;;;;;5104840;28;20084;-75
2022/11/21 00:56:12;;;;;;;40.83;18.55;;;-0.20;99.90;;;;;;5106120;28;20046;-75
2022/11/21 00:58:38;;;;;;;38.17;17.58;;;-0.20;99.90;;;;;;5100319;28;20052;-75
2022/11/21 01:01:12;;;;;;;36.17;17.50;;;-0.20;99.90;;;;;;5085694;28;20029;-75
2022/11/21 01:03:38;;;;;;;36.30;16.98;;;-0.20;99.90;;;;;;5085774;28;20028;-74
2022/11/21 01:06:12;;;;;;;37.60;17.05;;;-0.20;99.90;;;;;;5086115;28;20056;-76
2022/11/21 01:08:40;;;;;;;37.17;17.63;;;-0.20;99.90;;;;;;5085999;28;20089;-75
2022/11/21 01:11:16;;;;;;;37.90;18.05;;;-0.20;99.90;;;;;;5086021;28;20056;-74
2022/11/21 01:13:43;;;;;;;46.22;19.63;;;-0.20;99.90;;;;;;5085215;28;20082;-76
2022/11/21 01:16:13;;;;;;;40.45;18.63;;;-0.20;99.90;;;;;;5087916;28;20024;-75
2022/11/21 01:18:39;;;;;;;40.35;19.58;;;-0.20;99.90;;;;;;5106288;28;20032;-75
2022/11/21 01:21:07;;;;;;;40.42;19.38;;;-0.20;99.90;;;;;;5104739;28;20028;-75
2022/11/21 01:23:33;;;;;;;34.92;18.02;;;-0.20;99.90;;;;;;5105042;28;20044;-75
2022/11/21 01:26:08;;;;;;;43.50;18.45;;;-0.10;99.90;;;;;;5105868;28;20895;-75
2022/11/21 01:28:34;;;;;;;36.75;19.20;;;-0.20;99.90;;;;;;5104439;28;20051;-74
2022/11/21 01:31:08;;;;;;;37.45;18.30;;;-0.20;99.90;;;;;;5105287;28;20032;-75
2022/11/21 01:33:34;;;;;;;;;;;-0.20;99.90;;;;;;5105927;28;20102;-76
2022/11/21 01:36:27;;;;;;;39.13;18.50;;;-0.20;99.90;;;;;;5105354;28;19908;-75
2022/11/21 01:38:55;;;;;;;40.92;18.45;;;-0.30;99.90;;;;;;5103225;28;20093;-75
2022/11/21 01:41:25;;;;;;;41.78;18.95;;;-0.20;99.90;;;;;;5091061;28;20055;-75
2022/11/21 01:43:51;;;;;;;40.63;19.30;;;-0.30;99.90;;;;;;5084939;28;20056;-75
2022/11/21 01:46:21;;;;;;;36.35;18.00;;;-0.30;99.90;;;;;;5083767;28;20036;-75
2022/11/21 01:48:49;;;;;;;36.60;18.55;;;-0.30;99.90;;;;;;5084940;28;20037;-75
2022/11/21 01:51:22;;;;;;;38.58;18.92;;;-0.30;99.90;;;;;;5082855;28;20032;-75
2022/11/21 01:54:06;;;;;;;35.67;17.88;;;-0.30;99.90;;;;;;5084714;28;20427;-74
2022/11/21 01:56:40;;;;;;;;;;;-0.40;99.90;;;;;;5085262;28;20080;-74
2022/11/21 01:59:09;;;;;;;36.85;16.70;;;-0.40;99.90;;;;;;5083441;28;20529;-74
2022/11/21 02:01:36;;;;;;;35.22;16.38;;;-0.40;99.90;;;;;;5084805;28;20035;-75
2022/11/21 02:04:03;;;;;;;42.28;19.17;;;-0.50;99.90;;;;;;5084755;28;20036;-74
2022/11/21 02:06:30;;;;;;;41.38;18.73;;;-0.50;99.90;;;;;;5084127;28;20025;-75
2022/11/21 02:08:57;;;;;;;36.25;17.00;;;-0.60;99.90;;;;;;5083513;28;20039;-74
2022/11/21 02:11:41;;;;;;;37.28;17.52;;;-0.60;99.90;;;;;;5084697;28;20048;-75
2022/11/21 02:14:07;;;;;;;48.10;18.27;;;-0.60;99.90;;;;;;5083506;28;20033;-74
2022/11/21 02:16:34;;;;;;;37.92;17.98;;;-0.60;99.90;;;;;;5084354;28;20058;-74
2022/11/21 02:18:59;;;;;;;39.28;18.60;;;-0.60;99.90;;;;;;5084314;28;20025;-75
2022/11/21 02:21:56;;;;;;;39.78;18.85;;;-0.60;99.90;;;;;;5084116;28;20044;-75
2022/11/21 02:24:57;;;;;;;45.00;19.60;;;-0.60;99.90;;;;;;5094594;28;20028;-75
2022/11/21 02:27:23;;;;;;;44.33;18.08;;;-0.60;99.90;;;;;;5090195;28;20047;-74
2022/11/21 02:29:48;;;;;;;38.50;18.42;;;-0.60;99.90;;;;;;5084684;28;20032;-73
2022/11/21 02:32:22;;;;;;;41.53;18.67;;;-0.60;99.90;;;;;;5084126;28;20103;-74
2022/11/21 02:34:48;;;;;;;;;;;-0.70;99.90;;;;;;5090342;28;20028;-74
2022/11/21 02:37:15;;;;;;;44.05;18.65;;;-0.70;99.90;;;;;;5098690;28;19908;-74
2022/11/21 02:39:41;;;;;;;41.97;18.80;;;-0.70;99.90;;;;;;5103000;28;20036;-75
2022/11/21 02:42:15;;;;;;;46.83;19.65;;;-0.70;99.90;;;;;;5104462;28;20048;-76
2022/11/21 02:45:02;;;;;;;40.03;19.73;;;-0.70;99.90;;;;;;5096879;28;20021;-75
2022/11/21 02:47:29;;;;;;;46.30;20.10;;;-0.80;99.90;;;;;;5097853;28;20032;-74
2022/11/21 02:50:10;;;;;;;43.03;20.63;;;-0.80;99.90;;;;;;5102789;28;20020;-75
2022/11/21 02:52:35;;;;;;;43.60;20.35;;;-0.90;99.90;;;;;;5086963;28;20032;-74
2022/11/21 02:55:01;;;;;;;40.80;19.63;;;-0.90;99.90;;;;;;5083430;28;20076;-74
2022/11/21 02:57:27;;;;;;;42.30;19.88;;;-0.90;99.90;;;;;;5092508;28;20032;-74
2022/11/21 02:59:52;;;;;;;42.60;19.13;;;-0.90;99.90;;;;;;5084549;28;20028;-74
2022/11/21 03:02:18;;;;;;;41.45;18.63;;;-0.90;99.90;;;;;;5082064;28;20025;-74
2022/11/21 03:04:44;;;;;;;41.15;19.33;;;-0.80;99.90;;;;;;5084207;28;20028;-74
2022/11/21 03:07:10;;;;;;;46.17;20.67;;;-0.90;99.90;;;;;;5084204;28;20046;-74
2022/11/21 03:09:35;;;;;;;44.03;21.83;;;-0.90;99.90;;;;;;5082080;28;20032;-74
2022/11/21 03:12:08;;;;;;;42.53;19.98;;;-1.00;99.90;;;;;;5083776;28;20032;-74
2022/11/21 03:14:35;;;;;;;48.37;19.43;;;-1.00;99.90;;;;;;5083802;28;20029;-74
2022/11/21 03:17:01;;;;;;;42.40;19.85;;;-1.10;99.90;;;;;;5083348;28;20024;-74
2022/11/21 03:19:27;;;;;;;41.85;19.77;;;-1.10;99.90;;;;;;5082352;28;20652;-75
2022/11/21 03:21:53;;;;;;;43.35;19.83;;;-1.10;99.90;;;;;;5083607;28;20076;-75
2022/11/21 03:24:19;;;;;;;45.85;21.00;;;-1.20;99.90;;;;;;5082246;28;20491;-75
2022/11/21 03:26:44;;;;;;;42.33;19.73;;;-1.20;99.90;;;;;;5084011;28;20021;-75
2022/11/21 03:29:10;;;;;;;37.17;17.95;;;-1.10;99.90;;;;;;5084103;28;20027;-76
2022/11/21 03:31:35;;;;;;;36.55;17.50;;;-1.10;99.90;;;;;;5083425;28;20036;-75
2022/11/21 03:34:01;;;;;;;44.45;19.25;;;-1.20;99.90;;;;;;5083560;28;20036;-75
2022/11/21 03:36:27;;;;;;;44.05;19.20;;;-1.20;99.90;;;;;;5085393;28;20086;-75
2022/11/21 03:38:56;;;;;;;51.42;21.13;;;-1.10;99.90;;;;;;5086580;28;20161;-74
2022/11/21 03:41:31;;;;;;;43.60;18.92;;;-1.10;99.90;;;;;;5089770;28;20020;-74
2022/11/21 03:44:06;;;;;;;48.30;20.60;;;-1.10;99.90;;;;;;5096019;28;20082;-74
2022/11/21 03:46:38;;;;;;;41.72;18.85;;;-1.10;99.90;;;;;;5086137;28;20024;-74
2022/11/21 03:49:04;;;;;;;43.25;18.55;;;-1.20;99.90;;;;;;5087533;28;20040;-76
2022/11/21 03:51:31;;;;;;;38.78;18.10;;;-1.20;99.90;;;;;;5086752;28;20032;-75
2022/11/21 03:53:57;;;;;;;49.35;20.30;;;-1.10;99.90;;;;;;5085859;28;20469;-75
2022/11/21 03:56:23;;;;;;;42.55;18.42;;;-1.20;99.90;;;;;;5086946;28;20381;-75
2022/11/21 03:58:49;;;;;;;40.85;18.67;;;-1.30;99.90;;;;;;5086813;28;20039;-74
2022/11/21 04:01:15;;;;;;;38.55;18.65;;;-1.20;99.90;;;;;;5087518;28;20024;-75
2022/11/21 04:03:42;;;;;;;39.08;17.88;;;-1.30;99.90;;;;;;5086071;28;20088;-75
2022/11/21 04:06:08;;;;;;;39.42;17.58;;;-1.20;99.90;;;;;;5086888;28;20029;-74
2022/11/21 04:08:35;;;;;;;37.83;17.98;;;-1.40;99.90;;;;;;5086895;28;20139;-74
2022/11/21 04:11:00;;;;;;;40.08;17.98;;;-1.40;99.90;;;;;;5085392;28;20025;-74
2022/11/21 04:13:26;;;;;;;42.72;18.23;;;-1.40;99.90;;;;;;5086680;28;20060;-74
2022/11/21 04:15:52;;;;;;;39.95;16.88;;;-1.50;99.90;;;;;;5086414;28;20032;-77
2022/11/21 04:18:17;;;;;;;38.10;17.13;;;-1.50;99.90;;;;;;5086854;28;20059;-75
2022/11/21 04:20:43;;;;;;;38.80;17.95;;;-1.40;99.90;;;;;;5086784;28;20049;-75
2022/11/21 04:23:09;;;;;;;38.65;18.17;;;-1.40;99.90;;;;;;5086899;28;20052;-75
2022/11/21 04:25:35;;;;;;;41.33;18.73;;;-1.40;99.90;;;;;;5086621;28;20028;-75
2022/11/21 04:28:02;;;;;;;37.85;18.15;;;-1.50;99.90;;;;;;5086381;28;20039;-77
2022/11/21 04:30:31;;;;;;;42.88;18.77;;;-1.40;99.90;;;;;;5086852;28;20147;-76
2022/11/21 04:32:57;;;;;;;38.25;17.60;;;-1.50;99.90;;;;;;5084698;28;20031;-77
2022/11/21 04:35:23;;;;;;;40.33;18.15;;;-1.50;99.90;;;;;;5086492;28;20111;-75
2022/11/21 04:37:50;;;;;;;38.58;16.58;;;-1.50;99.90;;;;;;5085087;28;20055;-76
2022/11/21 04:40:16;;;;;;;37.65;17.60;;;-1.60;99.90;;;;;;5084925;28;20049;-77
2022/11/21 04:42:43;;;;;;;37.53;17.38;;;-1.60;99.90;;;;;;5086494;28;20024;-77
2022/11/21 04:45:09;;;;;;;35.92;17.10;;;-1.60;99.90;;;;;;5085006;28;20373;-75
2022/11/21 04:47:36;;;;;;;39.63;17.27;;;-1.60;99.90;;;;;;5083709;28;20031;-76
2022/11/21 04:50:02;;;;;;;40.78;18.42;;;-1.60;99.90;;;;;;5085850;28;20090;-76
2022/11/21 04:52:28;;;;;;;37.33;18.08;;;-1.50;99.90;;;;;;5086044;28;20033;-76
2022/11/21 04:54:53;;;;;;;44.35;17.83;;;-1.50;99.90;;;;;;5084052;28;20056;-75
2022/11/21 04:57:19;;;;;;;39.55;17.48;;;-1.50;99.90;;;;;;5086074;28;20112;-75
2022/11/21 04:59:44;;;;;;;41.33;17.67;;;-1.50;99.90;;;;;;5088924;28;20032;-75
2022/11/21 05:02:10;;;;;;;39.47;17.83;;;-1.50;99.90;;;;;;5084634;28;20016;-76
2022/11/21 05:04:36;;;;;;;39.33;16.90;;;-1.50;99.90;;;;;;5086551;28;20036;-74
2022/11/21 05:07:01;;;;;;;36.13;16.65;;;-1.50;99.90;;;;;;5085234;28;20031;-74
2022/11/21 05:09:27;;;;;;;37.28;17.20;;;-1.50;99.90;;;;;;5085750;28;20032;-75
2022/11/21 05:14:37;;;;;;;35.95;17.38;;;-1.50;99.90;;;;;;5095215;28;20035;-75
2022/11/21 05:17:02;;;;;;;38.20;15.10;;;-1.60;99.90;;;;;;5083780;28;20060;-75
2022/11/21 05:19:28;;;;;;;35.95;16.30;;;-1.60;99.90;;;;;;5097296;28;20032;-75
2022/11/21 05:21:53;;;;;;;38.60;17.60;;;-1.60;99.90;;;;;;5103963;28;20056;-75
2022/11/21 05:24:19;;;;;;;43.53;18.02;;;-1.60;99.90;;;;;;5094976;28;20032;-76
2022/11/21 05:26:45;;;;;;;38.38;16.40;;;-1.60;99.90;;;;;;5101690;28;20028;-76
2022/11/21 05:29:11;;;;;;;42.85;17.52;;;-1.70;99.90;;;;;;5105917;28;20028;-74
2022/11/21 05:31:37;;;;;;;40.20;17.58;;;-1.70;99.90;;;;;;5102339;28;20048;-75
2022/11/21 05:34:03;;;;;;;41.50;18.17;;;-1.70;99.90;;;;;;5085157;28;20029;-74
2022/11/21 05:36:28;;;;;;;39.47;17.63;;;-1.70;99.90;;;;;;5083459;28;20025;-74
2022/11/21 05:38:54;;;;;;;42.38;18.42;;;-1.70;99.90;;;;;;5083614;28;20047;-74
2022/11/21 05:41:20;;;;;;;38.10;17.08;;;-1.80;99.90;;;;;;5085016;28;20029;-75
2022/11/21 05:43:46;;;;;;;41.13;17.83;;;-1.70;99.90;;;;;;5084858;28;20389;-75
2022/11/21 05:46:16;;;;;;;33.45;16.42;;;-1.70;99.90;;;;;;5095451;28;20137;-76
2022/11/21 05:48:42;;;;;;;33.47;16.30;;;-1.80;99.90;;;;;;5096363;28;20020;-75
2022/11/21 05:51:08;;;;;;;34.00;15.70;;;-1.80;99.90;;;;;;5084140;28;20581;-75
2022/11/21 05:53:34;;;;;;;34.53;15.20;;;-1.80;99.90;;;;;;5085042;28;20020;-74
2022/11/21 05:56:11;;;;;;;35.28;15.23;;;-1.90;99.90;;;;;;5084790;28;20107;-74
2022/11/21 05:58:37;;;;;;;34.35;15.38;;;-1.90;99.90;;;;;;5084112;28;20089;-74
2022/11/21 06:01:05;;;;;;;32.33;14.75;;;-2.00;99.90;;;;;;5084867;28;20046;-75
2022/11/21 06:03:33;;;;;;;35.13;15.82;;;-1.90;99.90;;;;;;5084787;28;20024;-75
2022/11/21 06:06:02;;;;;;;34.55;16.15;;;-2.00;99.90;;;;;;5088362;28;20042;-75
2022/11/21 06:08:29;;;;;;;32.00;14.20;;;-2.20;99.90;;;;;;5095904;28;20029;-76
2022/11/21 06:10:55;;;;;;;31.08;13.55;;;-2.10;99.90;;;;;;5096367;28;20043;-75
2022/11/21 06:13:21;;;;;;;27.83;14.70;;;-2.20;99.90;;;;;;5100675;28;20457;-75
2022/11/21 06:16:11;;;;;;;28.90;14.13;;;-2.10;99.90;;;;;;5084752;28;20028;-75
2022/11/21 06:18:40;;;;;;;26.58;12.20;;;-2.20;99.90;;;;;;5082220;28;20052;-75
2022/11/21 06:21:17;;;;;;;26.95;13.10;;;-2.20;99.90;;;;;;5089347;28;20024;-75
2022/11/21 06:23:43;;;;;;;27.23;13.23;;;-2.30;99.90;;;;;;5088416;28;20097;-76
2022/11/21 06:26:15;;;;;;;33.38;14.70;;;-2.30;99.90;;;;;;5092163;28;20031;-75
2022/11/21 06:28:42;;;;;;;31.40;14.23;;;-2.30;99.90;;;;;;5095270;28;20508;-76
2022/11/21 06:31:13;;;;;;;32.67;14.40;;;-2.40;99.90;;;;;;5096911;28;20020;-76
2022/11/21 06:33:40;;;;;;;36.33;15.10;;;-2.40;99.90;;;;;;5091773;28;20601;-74
2022/11/21 06:36:13;;;;;;;38.28;15.65;;;-2.50;99.90;;;;;;5084525;28;20028;-77
2022/11/21 06:38:39;;;;;;;35.22;15.52;;;-2.60;99.90;;;;;;5084680;28;20039;-75
2022/11/21 06:41:13;;;;;;;30.30;15.45;;;-2.60;99.90;;;;;;5090653;28;20029;-76
2022/11/21 06:43:39;;;;;;;32.55;15.50;;;-2.70;99.90;;;;;;5094319;28;20032;-76
2022/11/21 06:46:06;;;;;;;36.35;16.25;;;-2.70;99.90;;;;;;5090474;28;20435;-77
2022/11/21 06:48:33;;;;;;;30.85;15.45;;;-2.80;99.90;;;;;;5104292;28;20028;-76
2022/11/21 06:51:18;;;;;;;35.00;16.48;;;-2.90;99.90;;;;;;5090977;28;20047;-77
2022/11/21 06:53:45;;;;;;;37.35;16.13;;;-2.90;99.90;;;;;;5088506;28;20036;-77
2022/11/21 06:56:11;;;;;;;34.00;16.13;;;-2.90;99.90;;;;;;5083306;28;20170;-77
2022/11/21 06:58:37;;;;;;;35.75;16.48;;;-2.90;99.90;;;;;;5088395;28;20504;-78
2022/11/21 07:01:09;;;;;;;40.85;17.23;;;-3.00;99.90;;;;;;5094018;28;20038;-76
2022/11/21 07:03:35;;;;;;;36.75;15.82;;;-3.00;99.90;;;;;;5084069;28;20020;-76
2022/11/21 07:06:01;;;;;;;34.95;15.98;;;-2.90;99.90;;;;;;5093789;28;20038;-76
2022/11/21 07:08:29;;;;;;;34.45;15.77;;;-3.00;99.90;;;;;;5087714;28;20066;-77
2022/11/21 07:10:54;;;;;;;33.72;16.25;;;-2.90;99.90;;;;;;5090341;28;20028;-76
2022/11/21 07:13:20;;;;;;;30.55;14.48;;;-2.90;99.90;;;;;;5091636;28;20024;-77
2022/11/21 07:15:51;;;;;;;35.78;15.95;;;-2.90;99.90;;;;;;5099255;28;20073;-75
2022/11/21 07:18:18;;;;;;;32.50;14.73;;;-2.90;99.90;;;;;;5096679;28;20051;-76
2022/11/21 07:20:44;;;;;;;37.70;16.67;;;-2.90;99.90;;;;;;5106131;28;20024;-77
2022/11/21 07:23:10;;;;;;;38.13;16.58;;;-2.90;99.90;;;;;;5105722;28;20117;-77
2022/11/21 07:25:36;;;;;;;41.45;16.75;;;-2.90;99.90;;;;;;5099777;28;20021;-76
2022/11/21 07:28:02;;;;;;;32.35;15.77;;;-2.70;99.90;;;;;;5097634;28;20130;-75
2022/11/21 07:30:29;;;;;;;37.78;17.13;;;-2.80;99.90;;;;;;5105503;28;20039;-76
2022/11/21 07:32:59;;;;;;;39.28;17.48;;;-2.80;99.90;;;;;;5099061;28;20028;-77
2022/11/21 07:35:25;;;;;;;39.00;17.77;;;-2.70;99.90;;;;;;5097672;28;20183;-76
2022/11/21 07:37:51;;;;;;;41.13;18.05;;;-2.70;99.90;;;;;;5104690;28;20047;-76
2022/11/21 07:40:16;;;;;;;43.15;18.17;;;-2.70;99.90;;;;;;5091028;28;20042;-77
2022/11/21 07:42:42;;;;;;;34.42;16.60;;;-2.70;99.90;;;;;;5088774;28;20040;-77
2022/11/21 07:45:09;;;;;;;44.10;18.05;;;-2.60;99.90;;;;;;5091012;28;20016;-76
2022/11/21 07:47:34;;;;;;;37.55;17.70;;;-2.60;99.90;;;;;;5087002;28;20032;-76
2022/11/21 07:50:00;;;;;;;37.55;16.83;;;-2.60;99.90;;;;;;5088329;28;20024;-77
2022/11/21 07:52:29;;;;;;;38.80;17.10;;;-2.50;99.90;;;;;;5097500;28;20444;-76
2022/11/21 07:54:55;;;;;;;35.13;17.30;;;-2.50;99.90;;;;;;5089641;28;20024;-75
2022/11/21 07:57:21;;;;;;;34.95;17.42;;;-2.50;99.90;;;;;;5094945;28;20061;-77
2022/11/21 07:59:50;;;;;;;37.40;17.60;;;-2.40;99.90;;;;;;5104936;28;20067;-76
2022/11/21 08:02:26;;;;;;;37.22;17.20;;;-2.30;99.90;;;;;;5095746;28;20032;-77
2022/11/21 08:04:52;;;;;;;39.22;18.58;;;-2.10;99.90;;;;;;5085698;28;20078;-76
2022/11/21 08:07:20;;;;;;;33.47;16.67;;;-1.90;99.90;;;;;;5097023;28;20028;-76
2022/11/21 08:09:46;;;;;;;37.92;16.52;;;-1.80;99.90;;;;;;5100374;28;20024;-76
2022/11/21 08:12:13;;;;;;;34.97;16.70;;;-1.70;99.90;;;;;;5085493;28;20031;-77
2022/11/21 08:14:39;;;;;;;38.55;18.17;;;-1.70;99.90;;;;;;5085942;28;20047;-76
2022/11/21 08:17:05;;;;;;;63.03;18.13;;;-1.60;99.90;;;;;;5085232;28;20032;-77
2022/11/21 08:19:31;;;;;;;68.28;18.65;;;-1.60;99.90;;;;;;5094776;28;20127;-77
2022/11/21 08:21:56;;;;;;;47.78;18.80;;;-1.50;99.90;;;;;;5098185;28;20052;-76
2022/11/21 08:24:23;;;;;;;85.78;19.10;;;-1.40;99.90;;;;;;5092224;28;20019;-76
2022/11/21 08:26:48;;;;;;;49.30;19.75;;;-1.40;99.90;;;;;;5087082;28;20016;-76
2022/11/21 08:29:14;;;;;;;43.33;20.27;;;-1.40;99.90;;;;;;5087933;28;20036;-74
2022/11/21 08:31:40;;;;;;;55.88;19.73;;;-1.40;99.90;;;;;;5087530;28;20051;-75
2022/11/21 08:34:06;;;;;;;38.50;19.25;;;-1.40;99.90;;;;;;5086746;28;20043;-75
2022/11/21 08:36:32;;;;;;;47.03;19.73;;;-1.40;99.90;;;;;;5086460;28;20032;-76
2022/11/21 08:38:58;;;;;;;45.45;20.63;;;-1.40;99.90;;;;;;5085642;28;20074;-75
2022/11/21 08:44:08;;;;;;;49.38;23.40;;;-1.30;99.90;;;;;;5087531;28;20040;-76
2022/11/21 08:46:36;;;;;;;50.22;24.63;;;-1.20;99.90;;;;;;5095088;28;20038;-76
2022/11/21 08:49:04;;;;;;;52.20;22.90;;;-1.20;99.90;;;;;;5086628;28;20484;-76
2022/11/21 08:51:30;;;;;;;131.25;23.92;;;-1.10;99.90;;;;;;5092135;28;20499;-75
2022/11/21 08:53:56;;;;;;;57.20;23.30;;;-1.00;99.90;;;;;;5095008;28;20025;-75
2022/11/21 08:56:22;;;;;;;50.55;22.23;;;-1.00;99.90;;;;;;5090221;28;20045;-76
2022/11/21 08:58:48;;;;;;;84.40;33.70;;;-0.90;99.90;;;;;;5092610;28;20051;-76
2022/11/21 09:01:13;;;;;;;114.55;43.50;;;-0.80;99.90;;;;;;5086590;28;20506;-75
2022/11/21 09:03:39;;;;;;;87.00;36.78;;;-0.80;99.90;;;;;;5106239;28;20113;-75
2022/11/21 09:06:05;;;;;;;56.35;24.60;;;-0.70;99.90;;;;;;5105209;28;20823;-74
2022/11/21 09:08:30;;;;;;;62.17;26.15;;;-0.60;99.90;;;;;;5097376;28;20029;-74
2022/11/21 09:10:56;;;;;;;58.33;25.52;;;-0.50;99.90;;;;;;5096477;28;20024;-75
2022/11/21 09:13:22;;;;;;;59.97;25.30;;;-0.40;99.90;;;;;;5092723;28;20035;-75
2022/11/21 09:18:32;;;;;;;;;;;-0.20;99.90;;;;;;5097594;28;20050;-75
2022/11/21 09:21:01;;;;;;;92.28;35.55;;;-0.10;99.90;;;;;;5089731;28;19909;-75
2022/11/21 09:23:27;;;;;;;55.47;25.88;;;0.00;99.90;;;;;;5094931;28;20165;-74
2022/11/21 09:25:52;;;;;;;62.55;27.33;;;0.10;99.90;;;;;;5096613;28;20024;-74
2022/11/21 09:28:18;;;;;;;58.67;28.55;;;0.30;99.90;;;;;;5092614;28;20464;-77
2022/11/21 09:30:43;;;;;;;57.75;25.10;;;0.30;99.90;;;;;;5100440;28;20039;-75
2022/11/21 09:33:11;;;;;;;68.85;26.33;;;0.40;99.90;;;;;;5097820;28;20105;-77
2022/11/21 09:35:37;;;;;;;55.60;23.60;;;0.50;99.90;;;;;;5090938;28;20024;-74
2022/11/21 09:38:04;;;;;;;51.47;24.30;;;0.60;99.90;;;;;;5085325;28;20182;-77
2022/11/21 09:40:31;;;;;;;55.80;24.98;;;0.60;99.90;;;;;;5089033;28;20028;-77
2022/11/21 09:43:21;;;;;;;47.10;21.85;;;0.70;99.90;;;;;;5084830;28;20031;-76
2022/11/21 09:45:53;;;;;;;51.40;23.73;;;0.80;99.90;;;;;;5101285;28;20492;-79
2022/11/21 09:48:26;;;;;;;63.40;24.88;;;0.90;99.90;;;;;;5092556;28;20107;-75
2022/11/21 09:51:02;;;;;;;54.40;23.73;;;1.00;99.90;;;;;;5087929;28;20033;-76
2022/11/21 09:53:33;;;;;;;54.90;25.25;;;1.20;99.90;;;;;;5088340;28;20028;-75
2022/11/21 09:56:14;;;;;;;55.22;22.77;;;1.30;99.90;;;;;;5092752;28;20029;-77
2022/11/21 09:59:11;;;;;;;54.28;24.63;;;1.20;99.90;;;;;;5096237;28;20036;-76
2022/11/21 10:01:37;;;;;;;44.08;21.05;;;1.10;99.90;;;;;;5094450;28;20078;-79
2022/11/21 10:04:03;;;;;;;57.30;23.95;;;1.10;99.90;;;;;;5087855;28;20020;-77
2022/11/21 10:06:35;;;;;;;56.05;25.73;;;1.00;99.90;;;;;;5102974;28;20468;-77
2022/11/21 10:09:06;;;;;;;60.42;23.75;;;1.00;99.90;;;;;;5103743;28;20028;-77
2022/11/21 10:15:16;;;;;;;56.35;24.83;;;0.90;99.90;;;;;;5088452;28;20044;-76
2022/11/21 10:17:58;;;;;;;52.17;23.50;;;0.90;99.90;;;;;;5087313;28;20044;-76
2022/11/21 10:20:32;;;;;;;53.47;24.48;;;1.00;99.90;;;;;;5083264;28;20044;-75
2022/11/21 10:23:19;;;;;;;50.20;24.00;;;1.00;99.90;;;;;;5094930;28;20072;-77
2022/11/21 10:25:55;;;;;;;51.10;24.90;;;1.00;99.90;;;;;;5090413;28;20031;-76
2022/11/21 10:29:17;;;;;;;53.53;24.02;;;1.10;99.90;;;;;;5084018;28;20024;-77
2022/11/21 10:31:43;;;;;;;50.17;23.77;;;1.10;99.90;;;;;;5064860;28;20044;-76
2022/11/21 10:34:19;;;;;;;49.35;23.52;;;1.20;99.90;;;;;;5092175;28;20031;-76
2022/11/21 10:36:51;;;;;;;50.42;22.38;;;1.30;99.90;;;;;;5091698;28;20035;-77
2022/11/21 10:39:30;;;;;;;50.08;23.35;;;1.30;99.90;;;;;;5087727;28;20043;-76
2022/11/21 10:42:14;;;;;;;48.78;22.02;;;1.40;99.90;;;;;;5091582;28;20032;-76
2022/11/21 10:47:30;;;;;;;;;;;1.50;99.90;;;;;;5089936;28;20573;-78
2022/11/21 10:49:55;;;;;;;46.90;22.23;;;1.50;99.90;;;;;;5086309;28;19904;-78
2022/11/21 10:52:24;;;;;;;52.20;23.42;;;1.50;99.90;;;;;;5090940;28;20024;-77
2022/11/21 10:55:02;;;;;;;53.72;22.13;;;1.60;99.90;;;;;;5093773;28;20032;-74
2022/11/21 10:57:44;;;;;;;45.95;22.02;;;1.60;99.90;;;;;;5100568;28;20062;-80
2022/11/21 11:00:13;;;;;;;49.03;22.55;;;1.60;99.90;;;;;;5085444;28;20035;-79
2022/11/21 11:02:41;;;;;;;51.75;21.77;;;1.70;99.90;;;;;;5087390;28;20044;-77
2022/11/21 11:05:27;;;;;;;44.45;20.98;;;1.70;99.90;;;;;;5084067;28;20027;-79
2022/11/21 11:08:03;;;;;;;49.92;22.17;;;1.80;99.90;;;;;;5095870;28;20028;-78
2022/11/21 11:10:30;;;;;;;41.58;19.98;;;1.90;99.90;;;;;;5104464;28;20055;-80
2022/11/21 11:16:03;;;;;;;54.63;22.70;;;2.10;99.90;;;;;;5093125;28;20031;-78
2022/11/21 11:18:33;;;;;;;55.63;20.10;;;2.20;99.90;;;;;;5085567;28;20280;-76
2022/11/21 11:21:38;;;;;;;42.90;21.00;;;2.50;99.90;;;;;;5095132;28;20028;-77
2022/11/21 11:24:09;;;;;;;;;;;2.70;99.90;;;;;;5060866;28;20037;-75
2022/11/21 11:26:48;;;;;;;43.75;19.23;;;2.90;99.90;;;;;;5030881;28;19908;-77
2022/11/21 11:29:22;;;;;;;41.90;20.15;;;3.20;99.90;;;;;;5072777;28;20111;-76
2022/11/21 11:31:50;;;;;;;;;;;3.50;99.90;;;;;;5095479;28;20020;-75
2022/11/21 11:34:16;;;;;;;48.63;19.95;;;3.90;99.90;;;;;;5101883;28;20056;-74
2022/11/21 11:37:00;;;;;;;46.03;19.60;;;4.30;99.90;;;;;;5088024;28;20040;-75
2022/11/21 11:39:53;;;;;;;39.72;19.30;;;4.70;99.90;;;;;;5091605;28;20047;-74
2022/11/21 11:48:44;;;;;;;39.72;16.52;;;5.10;99.90;;;;;;5055790;28;20124;-73
2022/11/21 11:51:40;;;;;;;33.80;15.27;;;5.20;99.90;;;;;;5083461;28;20020;-75
2022/11/21 11:54:24;;;;;;;32.80;16.27;;;5.20;99.90;;;;;;5080996;28;20056;-75
2022/11/21 11:56:49;;;;;;;39.70;17.67;;;5.20;99.90;;;;;;5089809;28;20028;-75
2022/11/21 11:59:40;;;;;;;37.53;18.02;;;5.30;99.90;;;;;;5086049;28;20174;-75
2022/11/21 12:02:18;;;;;;;38.65;18.45;;;5.30;99.90;;;;;;5092769;28;20032;-74
2022/11/21 12:04:54;;;;;;;30.30;14.20;;;5.30;99.90;;;;;;5100014;28;20043;-75
2022/11/21 12:07:36;;;;;;;34.08;16.90;;;5.30;99.90;;;;;;5087074;28;20103;-75
2022/11/21 12:10:13;;;;;;;44.50;17.65;;;5.00;99.90;;;;;;5091018;28;20588;-74
2022/11/21 12:12:44;;;;;;;33.22;15.52;;;4.90;99.90;;;;;;5089178;28;20088;-74
2022/11/21 12:15:47;;;;;;;41.15;18.55;;;4.90;99.90;;;;;;5086992;28;20063;-74
2022/11/21 12:18:19;;;;;;;34.30;15.70;;;4.90;99.90;;;;;;5092808;28;20043;-71
2022/11/21 12:21:07;;;;;;;35.58;16.10;;;5.00;99.90;;;;;;5092712;28;20035;-74
2022/11/21 12:23:40;;;;;;;38.63;17.00;;;5.20;99.90;;;;;;5086420;28;20084;-75
2022/11/21 12:26:44;;;;;;;31.27;15.30;;;5.30;99.90;;;;;;5091512;28;20051;-72
2022/11/21 12:29:46;;;;;;;41.80;17.17;;;5.30;99.90;;;;;;5103919;28;20092;-72
2022/11/21 12:32:21;;;;;;;34.88;15.57;;;5.40;99.90;;;;;;5100048;28;20038;-75
2022/11/21 12:35:26;;;;;;;36.45;15.68;;;5.50;99.90;;;;;;5102612;28;20030;-74
2022/11/21 12:38:29;;;;;;;49.50;22.00;;;5.40;99.90;;;;;;5043381;28;20037;-73
2022/11/21 12:42:47;;;;;;;33.25;15.65;;;5.40;99.90;;;;;;5084575;28;20052;-72
2022/11/21 12:44:09;;;;;;;27.90;13.27;;;5.50;99.90;;;;;;5100761;28;20028;-73
2022/11/21 12:47:07;;;;;;;36.53;14.90;;;5.30;99.90;;;;;;5085338;28;20027;-71
2022/11/21 12:55:42;;;;;;;36.83;14.40;;;5.20;99.90;;;;;;5085627;28;20047;-70
2022/11/21 12:58:31;;;;;;;30.13;14.45;;;5.20;99.90;;;;;;5082651;28;20042;-71
2022/11/21 13:01:24;;;;;;;28.08;13.27;;;5.20;99.90;;;;;;5082641;28;20046;-72
2022/11/21 13:04:00;;;;;;;34.83;14.07;;;5.20;99.90;;;;;;5093091;28;20029;-73
2022/11/21 13:06:29;;;;;;;30.73;13.45;;;5.30;99.90;;;;;;5100265;28;20158;-72
2022/11/21 13:08:58;;;;;;;29.95;12.43;;;5.30;99.90;;;;;;5102503;28;20577;-72
2022/11/21 13:14:26;;;;;;;32.45;13.90;;;5.90;99.90;;;;;;5104871;28;20035;-73
2022/11/21 13:17:16;;;;;;;26.77;13.38;;;6.20;99.90;;;;;;5104691;28;20035;-70
2022/11/21 13:20:04;;;;;;;28.10;12.65;;;6.60;99.90;;;;;;5104015;28;20040;-70